createdAt,value
2022-11-20T00:01:42.964Z,101142.72
2022-11-20T00:04:12.658Z,101133.47
2022-11-20T00:06:40.885Z,101129.56
2022-11-20T00:09:12.284Z,101122.34
2022-11-20T00:11:40.305Z,101127.72
2022-11-20T00:14:11.741Z,101123.16
2022-11-20T00:16:39.940Z,101126.53
2022-11-20T00:19:10.080Z,101124.84
2022-11-20T00:21:38.123Z,101125.66
2022-11-20T00:24:10.654Z,101123.16
2022-11-20T00:26:40.075Z,101119.94
2022-11-20T00:29:13.737Z,101109.47
2022-11-20T00:31:46.456Z,101108.66
2022-11-20T00:34:14.708Z,101101.22
2022-11-20T00:36:42.830Z,101099.34
2022-11-20T00:39:12.512Z,101093.97
2022-11-20T00:41:42.097Z,101089.22
2022-11-20T00:44:10.201Z,101090.06
2022-11-20T00:46:38.571Z,101090.91
2022-11-20T00:49:06.579Z,101089.22
2022-11-20T00:51:34.589Z,101081.13
2022-11-20T00:54:03.331Z,101078.44
2022-11-20T00:56:31.514Z,101074.91
2022-11-20T00:59:02.859Z,101081.41
2022-11-20T01:01:31.402Z,101079.38
2022-11-20T01:04:01.881Z,101070.44
2022-11-20T01:06:31.865Z,101070.63
2022-11-20T01:09:02.515Z,101066.72
2022-11-20T01:11:32.868Z,101066.53
2022-11-20T01:14:04.855Z,101063.44
2022-11-20T01:16:35.821Z,101057.06
2022-11-20T01:19:07.245Z,101062.44
2022-11-20T01:21:37.129Z,101063.09
2022-11-20T01:24:08.793Z,101060.75
2022-11-20T01:26:39.625Z,101055.47
2022-11-20T01:29:14.606Z,101050.25
2022-11-20T01:31:43.311Z,101047.16
2022-11-20T01:34:13.766Z,101043.47
2022-11-20T01:36:43.007Z,101038.53
2022-11-20T01:39:14.546Z,101032.28
2022-11-20T01:42:00.351Z,101033.94
2022-11-20T01:44:53.191Z,101018.41
2022-11-20T01:47:33.993Z,101009.94
2022-11-20T01:50:06.349Z,101008.28
2022-11-20T01:52:38.478Z,100997.09
2022-11-20T01:55:10.118Z,101004.16
2022-11-20T01:57:40.943Z,101001.69
2022-11-20T02:00:15.074Z,101002.13
2022-11-20T02:02:46.257Z,100990.06
2022-11-20T02:05:20.242Z,100995.06
2022-11-20T02:07:49.256Z,100998.03
2022-11-20T02:10:17.811Z,100992.63
2022-11-20T02:13:03.858Z,100988.44
2022-11-20T02:15:35.138Z,100982.56
2022-11-20T02:18:03.668Z,100973.88
2022-11-20T02:20:31.817Z,100969.34
2022-11-20T02:23:06.014Z,100968.53
2022-11-20T02:25:37.673Z,100970.00
2022-11-20T02:28:07.141Z,100961.25
2022-11-20T02:30:35.296Z,100950.28
2022-11-20T02:33:03.489Z,100950.72
2022-11-20T02:35:45.791Z,100934.94
2022-11-20T02:38:15.067Z,100942.38
2022-11-20T02:40:44.761Z,100940.72
2022-11-20T02:43:17.586Z,100933.31
2022-11-20T02:45:45.859Z,100929.16
2022-11-20T02:48:13.924Z,100924.78
2022-11-20T02:50:42.313Z,100920.78
2022-11-20T02:53:10.542Z,100918.75
2022-11-20T02:55:38.700Z,100915.09
2022-11-20T02:58:08.336Z,100901.75
2022-11-20T03:00:36.586Z,100906.72
2022-11-20T03:03:04.677Z,100899.47
2022-11-20T03:05:32.925Z,100891.38
2022-11-20T03:08:01.068Z,100906.34
2022-11-20T03:10:29.665Z,100899.53
2022-11-20T03:12:58.074Z,100899.28
2022-11-20T03:15:27.505Z,100898.69
2022-11-20T03:17:57.117Z,100894.38
2022-11-20T03:20:25.344Z,100886.47
2022-11-20T03:22:55.794Z,100886.47
2022-11-20T03:25:24.462Z,100881.13
2022-11-20T03:27:52.782Z,100887.38
2022-11-20T03:30:21.054Z,100872.63
2022-11-20T03:32:50.569Z,100875.34
2022-11-20T03:35:18.901Z,100867.50
2022-11-20T03:37:47.212Z,100866.66
2022-11-20T03:40:15.427Z,100860.25
2022-11-20T03:42:49.096Z,100860.47
2022-11-20T03:45:18.961Z,100860.09
2022-11-20T03:47:47.971Z,100865.09
2022-11-20T03:50:17.439Z,100861.38
2022-11-20T03:52:45.514Z,100846.81
2022-11-20T03:55:13.598Z,100837.31
2022-11-20T03:57:41.903Z,100846.66
2022-11-20T04:00:11.259Z,100841.91
2022-11-20T04:02:39.410Z,100839.03
2022-11-20T04:05:08.340Z,100829.28
2022-11-20T04:07:38.067Z,100838.22
2022-11-20T04:10:07.156Z,100823.69
2022-11-20T04:12:38.080Z,100825.78
2022-11-20T04:15:06.700Z,100822.03
2022-11-20T04:17:35.219Z,100820.81
2022-11-20T04:20:03.381Z,100814.19
2022-11-20T04:22:31.643Z,100814.19
2022-11-20T04:25:03.226Z,100811.28
2022-11-20T04:27:33.130Z,100808.59
2022-11-20T04:30:02.226Z,100806.97
2022-11-20T04:32:30.340Z,100802.97
2022-11-20T04:34:58.480Z,100804.84
2022-11-20T04:37:26.626Z,100788.63
2022-11-20T04:39:54.725Z,100786.56
2022-11-20T04:42:33.059Z,100786.56
2022-11-20T04:45:01.243Z,100782.16
2022-11-20T04:47:29.500Z,100775.28
2022-11-20T04:49:57.603Z,100779.22
2022-11-20T04:52:25.717Z,100779.47
2022-11-20T04:54:54.971Z,100776.13
2022-11-20T04:57:24.431Z,100769.72
2022-11-20T04:59:52.620Z,100765.13
2022-11-20T05:02:21.281Z,100769.28
2022-11-20T05:04:49.761Z,100762.19
2022-11-20T05:07:17.942Z,100761.38
2022-11-20T05:09:47.012Z,100746.03
2022-11-20T05:12:15.080Z,100734.34
2022-11-20T05:14:44.560Z,100731.66
2022-11-20T05:17:13.495Z,100726.84
2022-11-20T05:19:41.526Z,100711.09
2022-11-20T05:22:09.734Z,100715.22
2022-11-20T05:24:37.796Z,100719.56
2022-11-20T05:27:05.864Z,100718.56
2022-11-20T05:29:33.998Z,100716.03
2022-11-20T05:32:03.449Z,100711.88
2022-11-20T05:34:31.590Z,100705.06
2022-11-20T05:36:59.675Z,100694.88
2022-11-20T05:39:27.763Z,100688.03
2022-11-20T05:42:09.733Z,100683.69
2022-11-20T05:44:38.134Z,100680.75
2022-11-20T05:47:08.040Z,100691.31
2022-11-20T05:49:36.100Z,100689.91
2022-11-20T05:52:04.278Z,100684.50
2022-11-20T05:54:32.485Z,100682.00
2022-11-20T05:57:00.553Z,100677.22
2022-11-20T05:59:28.723Z,100675.75
2022-11-20T06:01:56.762Z,100658.72
2022-11-20T06:04:26.576Z,100662.06
2022-11-20T06:06:54.637Z,100664.13
2022-11-20T06:09:22.866Z,100667.88
2022-11-20T06:11:51.180Z,100655.03
2022-11-20T06:14:19.260Z,100645.22
2022-11-20T06:16:47.319Z,100636.94
2022-11-20T06:19:16.039Z,100639.22
2022-11-20T06:21:45.565Z,100635.69
2022-11-20T06:24:14.003Z,100637.78
2022-11-20T06:26:42.070Z,100627.38
2022-11-20T06:29:10.227Z,100623.44
2022-11-20T06:31:38.790Z,100620.94
2022-11-20T06:34:07.701Z,100618.88
2022-11-20T06:36:36.345Z,100622.41
2022-11-20T06:39:06.213Z,100608.91
2022-11-20T06:41:35.492Z,100611.00
2022-11-20T06:44:07.768Z,100604.31
2022-11-20T06:46:35.828Z,100596.44
2022-11-20T06:49:03.811Z,100598.09
2022-11-20T06:51:32.360Z,100590.63
2022-11-20T06:54:01.911Z,100587.09
2022-11-20T06:56:31.316Z,100566.94
2022-11-20T06:58:59.396Z,100568.16
2022-11-20T07:01:27.497Z,100567.75
2022-11-20T07:03:55.649Z,100562.97
2022-11-20T07:06:23.766Z,100556.94
2022-11-20T07:08:53.424Z,100547.41
2022-11-20T07:11:21.510Z,100549.03
2022-11-20T07:13:52.166Z,100552.38
2022-11-20T07:16:20.413Z,100555.72
2022-11-20T07:18:50.898Z,100560.69
2022-11-20T07:21:19.521Z,100567.38
2022-11-20T07:23:47.950Z,100580.66
2022-11-20T07:26:15.986Z,100600.19
2022-11-20T07:28:46.603Z,100591.25
2022-11-20T07:31:19.130Z,100593.13
2022-11-20T07:33:47.764Z,100597.69
2022-11-20T07:36:15.828Z,100575.06
2022-11-20T07:38:43.992Z,100582.94
2022-11-20T07:41:12.014Z,100569.22
2022-11-20T07:43:41.667Z,100575.88
2022-11-20T07:46:10.105Z,100581.47
2022-11-20T07:48:39.500Z,100595.00
2022-11-20T07:51:07.816Z,100587.31
2022-11-20T07:53:35.926Z,100580.88
2022-11-20T07:56:05.097Z,100576.91
2022-11-20T07:58:35.413Z,100584.81
2022-11-20T08:01:07.099Z,100572.97
2022-11-20T08:03:35.416Z,100570.91
2022-11-20T08:06:04.839Z,100578.78
2022-11-20T08:08:34.016Z,100571.28
2022-11-20T08:11:16.860Z,100583.34
2022-11-20T08:14:02.363Z,100594.78
2022-11-20T08:16:30.614Z,100592.72
2022-11-20T08:18:58.614Z,100595.19
2022-11-20T08:21:28.109Z,100605.81
2022-11-20T08:23:56.175Z,100620.56
2022-11-20T08:26:24.336Z,100617.47
2022-11-20T08:28:55.529Z,100623.69
2022-11-20T08:31:23.713Z,100624.09
2022-11-20T08:33:51.976Z,100643.47
2022-11-20T08:36:21.059Z,100651.38
2022-11-20T08:38:51.037Z,100645.75
2022-11-20T08:41:28.808Z,100644.31
2022-11-20T08:43:59.714Z,100653.03
2022-11-20T08:46:29.709Z,100645.09
2022-11-20T08:48:57.715Z,100645.09
2022-11-20T08:51:25.781Z,100644.72
2022-11-20T08:53:55.207Z,100656.78
2022-11-20T08:56:23.206Z,100658.84
2022-11-20T08:59:18.274Z,100660.09
2022-11-20T09:01:40.583Z,100661.56
2022-11-20T09:04:08.860Z,100661.97
2022-11-20T09:06:37.030Z,100661.34
2022-11-20T09:09:07.196Z,100667.81
2022-11-20T09:11:36.554Z,100665.72
2022-11-20T09:14:05.537Z,100671.78
2022-11-20T09:16:33.599Z,100668.00
2022-11-20T09:19:33.613Z,100667.59
2022-11-20T09:21:49.602Z,100669.47
2022-11-20T09:24:21.588Z,100659.50
2022-11-20T09:26:49.637Z,100658.88
2022-11-20T09:29:17.650Z,100662.19
2022-11-20T09:31:45.722Z,100652.19
2022-11-20T09:34:13.744Z,100665.94
2022-11-20T09:36:41.749Z,100678.44
2022-11-20T09:39:09.804Z,100684.25
2022-11-20T09:41:59.656Z,100699.41
2022-11-20T09:44:42.185Z,100692.13
2022-11-20T09:47:17.030Z,100698.19
2022-11-20T09:49:59.801Z,100706.72
2022-11-20T09:52:42.405Z,100693.59
2022-11-20T09:55:14.026Z,100700.47
2022-11-20T09:57:46.477Z,100697.75
2022-11-20T10:00:16.899Z,100700.06
2022-11-20T10:02:50.713Z,100693.59
2022-11-20T10:05:23.387Z,100690.28
2022-11-20T10:07:57.140Z,100670.50
2022-11-20T10:10:39.706Z,100658.03
2022-11-20T10:13:26.818Z,100666.34
2022-11-20T10:16:05.281Z,100664.88
2022-11-20T10:18:47.037Z,100669.69
2022-11-20T10:21:28.360Z,100666.34
2022-11-20T10:24:09.258Z,100669.88
2022-11-20T10:26:46.870Z,100675.28
2022-11-20T10:29:18.871Z,100663.03
2022-11-20T10:31:50.283Z,100664.66
2022-11-20T10:34:26.151Z,100660.75
2022-11-20T10:36:58.329Z,100656.16
2022-11-20T10:39:35.188Z,100656.78
2022-11-20T10:42:03.365Z,100659.06
2022-11-20T10:44:56.271Z,100649.28
2022-11-20T10:47:24.647Z,100662.81
2022-11-20T10:49:56.141Z,100670.94
2022-11-20T10:52:34.299Z,100670.50
2022-11-20T10:55:13.947Z,100657.19
2022-11-20T10:57:54.965Z,100652.78
2022-11-20T11:00:27.164Z,100655.06
2022-11-20T11:02:58.509Z,100656.75
2022-11-20T11:05:39.270Z,100659.66
2022-11-20T11:08:13.190Z,100664.22
2022-11-20T11:10:50.065Z,100665.06
2022-11-20T11:13:25.895Z,100669.59
2022-11-20T11:15:56.669Z,100668.97
2022-11-20T11:18:26.400Z,100655.63
2022-11-20T11:20:56.093Z,100661.66
2022-11-20T11:23:35.854Z,100663.09
2022-11-20T11:26:06.085Z,100665.59
2022-11-20T11:28:35.111Z,100667.88
2022-11-20T11:31:04.649Z,100668.66
2022-11-20T11:33:35.465Z,100661.97
2022-11-20T11:36:05.743Z,100671.53
2022-11-20T11:38:38.553Z,100655.47
2022-11-20T11:41:09.514Z,100664.84
2022-11-20T11:43:57.313Z,100660.00
2022-11-20T11:46:31.629Z,100658.53
2022-11-20T11:49:00.756Z,100646.84
2022-11-20T11:51:34.796Z,100643.44
2022-11-20T11:54:05.409Z,100640.28
2022-11-20T11:56:35.376Z,100631.25
2022-11-20T11:59:12.984Z,100629.59
2022-11-20T12:01:50.251Z,100622.22
2022-11-20T12:04:27.660Z,100625.72
2022-11-20T12:07:18.274Z,100622.56
2022-11-20T12:09:56.632Z,100633.97
2022-11-20T12:12:29.684Z,100631.84
2022-11-20T12:15:00.081Z,100627.47
2022-11-20T12:17:29.884Z,100635.47
2022-11-20T12:19:58.744Z,100628.97
2022-11-20T12:22:37.460Z,100627.50
2022-11-20T12:25:13.138Z,100627.09
2022-11-20T12:27:57.237Z,100618.66
2022-11-20T12:30:25.687Z,100619.59
2022-11-20T12:33:12.008Z,100617.19
2022-11-20T12:36:05.403Z,100626.25
2022-11-20T12:39:02.104Z,100620.81
2022-11-20T12:42:11.477Z,100621.28
2022-11-20T12:45:15.413Z,100626.56
2022-11-20T12:48:08.224Z,100645.72
2022-11-20T12:51:13.987Z,100636.34
2022-11-20T12:53:48.329Z,100642.41
2022-11-20T12:56:30.248Z,100631.06
2022-11-20T12:59:18.508Z,100636.44
2022-11-20T13:01:52.293Z,100644.97
2022-11-20T13:04:41.366Z,100638.63
2022-11-20T13:07:13.631Z,100647.53
2022-11-20T13:09:45.427Z,100646.03
2022-11-20T13:12:18.584Z,100638.63
2022-11-20T13:14:54.667Z,100642.44
2022-11-20T13:17:31.902Z,100651.13
2022-11-20T13:20:01.850Z,100649.47
2022-11-20T13:22:44.010Z,100657.84
2022-11-20T13:25:16.339Z,100670.97
2022-11-20T13:27:50.053Z,100659.75
2022-11-20T13:30:20.153Z,100659.91
2022-11-20T13:32:56.899Z,100654.22
2022-11-20T13:35:34.720Z,100679.53
2022-11-20T13:38:05.906Z,100678.00
2022-11-20T13:40:35.063Z,100682.97
2022-11-20T13:43:21.818Z,100682.97
2022-11-20T13:46:00.934Z,100683.53
2022-11-20T13:48:33.281Z,100677.63
2022-11-20T13:51:18.267Z,100680.97
2022-11-20T13:54:13.397Z,100682.50
2022-11-20T13:56:53.518Z,100677.34
2022-11-20T13:59:40.113Z,100670.50
2022-11-20T14:02:13.795Z,100663.41
2022-11-20T14:04:47.073Z,100647.97
2022-11-20T14:07:17.805Z,100653.44
2022-11-20T14:09:53.814Z,100649.50
2022-11-20T14:12:29.199Z,100639.72
2022-11-20T14:14:57.804Z,100643.88
2022-11-20T14:17:32.692Z,100642.00
2022-11-20T14:20:03.628Z,100639.13
2022-11-20T14:22:33.135Z,100639.75
2022-11-20T14:25:08.828Z,100622.03
2022-11-20T14:27:40.194Z,100623.53
2022-11-20T14:30:16.170Z,100614.34
2022-11-20T14:32:45.248Z,100629.34
2022-11-20T14:35:20.564Z,100628.69
2022-11-20T14:37:50.166Z,100632.66
2022-11-20T14:40:28.242Z,100641.09
2022-11-20T14:42:57.069Z,100643.72
2022-11-20T14:45:27.061Z,100654.59
2022-11-20T14:47:58.238Z,100656.03
2022-11-20T14:50:28.225Z,100656.84
2022-11-20T14:53:00.204Z,100663.50
2022-11-20T14:55:30.289Z,100662.09
2022-11-20T14:58:00.567Z,100670.47
2022-11-20T15:00:32.112Z,100670.69
2022-11-20T15:03:00.838Z,100656.09
2022-11-20T15:05:47.489Z,100659.00
2022-11-20T15:08:20.529Z,100659.00
2022-11-20T15:10:50.482Z,100653.97
2022-11-20T15:13:26.041Z,100659.66
2022-11-20T15:15:57.033Z,100652.81
2022-11-20T15:18:29.218Z,100668.06
2022-11-20T15:20:58.750Z,100657.84
2022-11-20T15:23:29.572Z,100656.81
2022-11-20T15:26:00.113Z,100658.91
2022-11-20T15:28:33.817Z,100652.94
2022-11-20T15:31:03.378Z,100645.03
2022-11-20T15:33:32.321Z,100645.69
2022-11-20T15:36:01.305Z,100649.88
2022-11-20T15:38:30.826Z,100653.03
2022-11-20T15:40:59.115Z,100650.50
2022-11-20T15:43:27.261Z,100646.78
2022-11-20T15:45:59.062Z,100650.31
2022-11-20T15:48:31.098Z,100643.88
2022-11-20T15:51:01.725Z,100645.50
2022-11-20T15:53:31.694Z,100641.34
2022-11-20T15:56:02.595Z,100644.44
2022-11-20T15:58:30.741Z,100639.25
2022-11-20T16:01:00.172Z,100638.25
2022-11-20T16:03:28.364Z,100643.00
2022-11-20T16:05:57.657Z,100646.16
2022-11-20T16:08:25.858Z,100644.94
2022-11-20T16:10:55.238Z,100648.03
2022-11-20T16:13:41.383Z,100657.25
2022-11-20T16:16:20.727Z,100659.97
2022-11-20T16:18:48.833Z,100653.50
2022-11-20T16:21:17.025Z,100644.59
2022-11-20T16:23:45.354Z,100646.91
2022-11-20T16:26:16.825Z,100657.13
2022-11-20T16:28:45.604Z,100656.28
2022-11-20T16:31:14.951Z,100654.63
2022-11-20T16:33:43.546Z,100659.22
2022-11-20T16:36:13.097Z,100658.59
2022-11-20T16:38:41.623Z,100661.28
2022-11-20T16:41:14.508Z,100656.97
2022-11-20T16:43:51.713Z,100646.97
2022-11-20T16:46:22.208Z,100651.56
2022-11-20T16:48:55.488Z,100657.63
2022-11-20T16:51:25.128Z,100663.72
2022-11-20T16:53:55.093Z,100667.81
2022-11-20T16:56:25.365Z,100667.19
2022-11-20T16:58:57.442Z,100671.16
2022-11-20T17:01:28.672Z,100672.84
2022-11-20T17:03:59.012Z,100674.31
2022-11-20T17:06:29.494Z,100667.91
2022-11-20T17:08:58.466Z,100677.88
2022-11-20T17:11:27.157Z,100682.66
2022-11-20T17:13:57.605Z,100682.47
2022-11-20T17:16:26.575Z,100682.09
2022-11-20T17:19:01.316Z,100681.66
2022-11-20T17:21:33.257Z,100690.25
2022-11-20T17:24:03.180Z,100694.59
2022-11-20T17:26:31.609Z,100693.53
2022-11-20T17:29:02.891Z,100701.03
2022-11-20T17:31:32.963Z,100695.00
2022-11-20T17:34:01.884Z,100697.09
2022-11-20T17:36:30.902Z,100703.13
2022-11-20T17:39:01.691Z,100702.91
2022-11-20T17:41:31.050Z,100706.25
2022-11-20T17:44:03.839Z,100710.03
2022-11-20T17:46:34.330Z,100717.09
2022-11-20T17:49:03.168Z,100716.69
2022-11-20T17:51:32.948Z,100719.81
2022-11-20T17:54:07.260Z,100723.78
2022-11-20T17:56:53.969Z,100738.78
2022-11-20T17:59:25.635Z,100745.88
2022-11-20T18:02:02.231Z,100752.53
2022-11-20T18:04:34.016Z,100752.13
2022-11-20T18:07:04.188Z,100749.63
2022-11-20T18:09:32.403Z,100766.03
2022-11-20T18:12:03.544Z,100761.28
2022-11-20T18:14:36.665Z,100769.19
2022-11-20T18:17:07.776Z,100765.44
2022-11-20T18:19:44.666Z,100760.44
2022-11-20T18:22:21.174Z,100751.66
2022-11-20T18:24:49.266Z,100757.06
2022-11-20T18:27:19.522Z,100759.97
2022-11-20T18:29:51.953Z,100764.56
2022-11-20T18:32:20.760Z,100764.34
2022-11-20T18:34:48.802Z,100769.13
2022-11-20T18:37:16.945Z,100772.66
2022-11-20T18:39:45.116Z,100774.72
2022-11-20T18:42:32.340Z,100766.63
2022-11-20T18:45:04.187Z,100780.13
2022-11-20T18:47:36.105Z,100786.16
2022-11-20T18:50:10.293Z,100782.38
2022-11-20T18:52:41.716Z,100779.91
2022-11-20T18:55:11.096Z,100779.47
2022-11-20T18:57:39.322Z,100776.97
2022-11-20T19:00:10.427Z,100779.28
2022-11-20T19:02:42.579Z,100781.53
2022-11-20T19:05:11.856Z,100801.91
2022-11-20T19:07:40.277Z,100794.19
2022-11-20T19:10:09.099Z,100791.47
2022-11-20T19:12:37.144Z,100799.78
2022-11-20T19:15:06.206Z,100798.94
2022-11-20T19:17:36.475Z,100801.41
2022-11-20T19:20:04.998Z,100798.09
2022-11-20T19:22:33.258Z,100791.41
2022-11-20T19:25:01.344Z,100790.56
2022-11-20T19:27:29.563Z,100796.38
2022-11-20T19:30:03.228Z,100806.97
2022-11-20T19:32:32.491Z,100804.03
2022-11-20T19:35:02.619Z,100797.56
2022-11-20T19:37:34.005Z,100804.19
2022-11-20T19:40:04.292Z,100807.53
2022-11-20T19:42:32.687Z,100807.53
2022-11-20T19:45:00.805Z,100813.34
2022-11-20T19:47:52.579Z,100812.03
2022-11-20T19:50:18.642Z,100813.72
2022-11-20T19:52:47.167Z,100829.28
2022-11-20T19:55:15.441Z,100832.16
2022-11-20T19:57:43.591Z,100832.16
2022-11-20T20:00:23.089Z,100843.97
2022-11-20T20:02:53.877Z,100838.34
2022-11-20T20:05:23.498Z,100841.41
2022-11-20T20:07:51.572Z,100840.56
2022-11-20T20:10:20.391Z,100846.34
2022-11-20T20:12:48.889Z,100846.97
2022-11-20T20:15:17.192Z,100835.31
2022-11-20T20:17:46.923Z,100832.13
2022-11-20T20:20:16.442Z,100834.41
2022-11-20T20:22:46.188Z,100845.22
2022-11-20T20:25:14.863Z,100841.44
2022-11-20T20:27:43.423Z,100852.41
2022-11-20T20:30:12.760Z,100852.19
2022-11-20T20:32:40.865Z,100863.97
2022-11-20T20:35:09.929Z,100866.03
2022-11-20T20:37:37.987Z,100867.28
2022-11-20T20:40:13.754Z,100872.88
2022-11-20T20:42:43.385Z,100875.38
2022-11-20T20:45:12.174Z,100869.53
2022-11-20T20:47:41.881Z,100867.41
2022-11-20T20:50:13.127Z,100871.34
2022-11-20T20:52:41.311Z,100862.19
2022-11-20T20:55:11.656Z,100877.94
2022-11-20T20:57:39.756Z,100879.44
2022-11-20T21:00:10.362Z,100869.22
2022-11-20T21:02:38.647Z,100876.00
2022-11-20T21:05:07.339Z,100880.31
2022-11-20T21:07:57.221Z,100883.00
2022-11-20T21:10:26.852Z,100892.31
2022-11-20T21:12:54.974Z,100884.81
2022-11-20T21:15:23.026Z,100888.91
2022-11-20T21:17:51.231Z,100888.84
2022-11-20T21:20:33.198Z,100892.75
2022-11-20T21:23:01.639Z,100895.91
2022-11-20T21:25:31.183Z,100905.47
2022-11-20T21:27:59.320Z,100887.16
2022-11-20T21:30:27.409Z,100883.63
2022-11-20T21:32:56.735Z,100885.50
2022-11-20T21:35:24.937Z,100875.75
2022-11-20T21:37:53.013Z,100866.19
2022-11-20T21:40:21.228Z,100870.09
2022-11-20T21:42:50.717Z,100865.53
2022-11-20T21:45:18.834Z,100858.81
2022-11-20T21:47:50.012Z,100853.81
2022-11-20T21:50:18.661Z,100855.03
2022-11-20T21:52:46.786Z,100855.88
2022-11-20T21:55:14.835Z,100842.50
2022-11-20T21:57:45.597Z,100860.75
2022-11-20T22:00:16.018Z,100861.13
2022-11-20T22:02:44.105Z,100850.69
2022-11-20T22:05:12.215Z,100844.00
2022-11-20T22:07:44.435Z,100845.22
2022-11-20T22:10:17.170Z,100836.69
2022-11-20T22:12:46.612Z,100831.84
2022-11-20T22:15:33.034Z,100828.88
2022-11-20T22:18:15.270Z,100830.09
2022-11-20T22:20:43.346Z,100826.38
2022-11-20T22:23:11.449Z,100836.25
2022-11-20T22:25:39.521Z,100823.16
2022-11-20T22:28:07.560Z,100820.25
2022-11-20T22:30:37.080Z,100813.38
2022-11-20T22:33:09.000Z,100811.34
2022-11-20T22:35:41.183Z,100809.03
2022-11-20T22:38:09.162Z,100797.41
2022-11-20T22:40:37.150Z,100796.75
2022-11-20T22:43:05.230Z,100795.56
2022-11-20T22:45:33.395Z,100795.16
2022-11-20T22:48:02.764Z,100781.69
2022-11-20T22:50:30.799Z,100779.47
2022-11-20T22:52:58.872Z,100767.84
2022-11-20T22:55:27.267Z,100773.25
2022-11-20T22:57:55.669Z,100767.47
2022-11-20T23:00:23.821Z,100770.16
2022-11-20T23:02:51.833Z,100766.63
2022-11-20T23:05:21.328Z,100771.84
2022-11-20T23:07:49.494Z,100789.88
2022-11-20T23:10:17.802Z,100807.72
2022-11-20T23:12:46.014Z,100809.38
2022-11-20T23:15:14.105Z,100806.13
2022-11-20T23:17:42.740Z,100815.22
2022-11-20T23:20:11.911Z,100820.63
2022-11-20T23:22:41.309Z,100816.72
2022-11-20T23:25:10.413Z,100814.03
2022-11-20T23:27:38.509Z,100815.03
2022-11-20T23:30:07.793Z,100821.91
2022-11-20T23:32:35.901Z,100803.69
2022-11-20T23:35:03.940Z,100806.94
2022-11-20T23:37:32.012Z,100804.72
2022-11-20T23:40:01.450Z,100800.78
2022-11-20T23:42:32.464Z,100789.19
2022-11-20T23:45:03.397Z,100791.69
2022-11-20T23:47:31.496Z,100784.25
2022-11-20T23:50:01.876Z,100773.50
2022-11-20T23:52:29.942Z,100770.78
2022-11-20T23:54:57.958Z,100764.53
2022-11-20T23:57:27.413Z,100771.41
2022-11-20T23:59:55.427Z,100777.19
